• Join FlightAware (Why Join?)
  • Login
  • US Flag 
03:35AM EDT


 

Airport Tracker/Info


-or-


 

Live Flight TrackerFlight Track Log ✈ DAL1027 ✈ 17-Apr-2012 ✈ KATL - KTUS

Flight Track Log - Related Links

Times and Time Zones

All times are in EDT time to prevent confusion due to time zone crossing. See the DAL1027 flight status page for this flight to view local times or setup timezone preferences in your user account.

Time Position Orientation Groundspeed Altitude Reporting Facility
EDT Latitude Longitude Course Direction KTS MPH feet Rate Location/Type
10:29PM 33.6500 -84.4667 284° West 188 216 2,500  Level Atlanta TRACON
10:30PM 33.6667 -84.5500 284° West 257 296 4,700 2,580 Climbing Atlanta TRACON
10:31PM 33.6833 -84.6333 279° West 280 322 7,700 2,940 Climbing Atlanta TRACON
10:33PM 33.7103 -84.8431 286° West 296 341 13,900 2,280 Climbing Atlanta Center
10:34PM 33.7325 -84.9381 288° West 302 348 14,800 1,500 Climbing Atlanta Center
10:35PM 33.7631 -85.0508 289° West 346 398 17,000 1,980 Climbing Atlanta Center
10:36PM 33.7975 -85.1686 289° West 374 430 18,800 1,800 Climbing Atlanta Center
10:37PM 33.8317 -85.2892 288° West 380 437 20,700 1,860 Climbing Atlanta Center
10:38PM 33.8658 -85.4147 288° West 386 444 22,600 1,740 Climbing Atlanta Center
10:39PM 33.9039 -85.5531 288° West 386 444 24,200 1,320 Climbing Atlanta Center
10:40PM 33.9397 -85.6839 288° West 400 460 25,300 960 Climbing Atlanta Center
10:41PM 33.9675 -85.7897 288° West 411 473 26,200 1,080 Climbing Atlanta Center
10:42PM 34.0072 -85.9383 289° West 417 480 27,500 1,140 Climbing Atlanta Center
10:43PM 34.0467 -86.0794 287° West 437 503 28,500 900 Climbing Atlanta Center
10:44PM 34.0839 -86.2258 289° West 451 519 29,400 720 Climbing Atlanta Center
10:45PM 34.1250 -86.3725 287° West 457 526 30,000 300 Climbing Atlanta Center
10:46PM 34.1617 -86.5167 288° West 462 532 30,000 600 Level Atlanta Center
10:47PM 34.2006 -86.6633 287° West 462 532 31,200 840 Climbing Atlanta Center
10:48PM 34.2461 -86.8444 288° West 443 510 32,000 300 Climbing Memphis Center
10:49PM 34.2858 -86.9961 287° West 438 504 32,000  Level Memphis Center
10:50PM 34.3208 -87.1381 288° West 438 504 32,000 660 Level Memphis Center
10:51PM 34.3578 -87.2803 288° West 438 504 33,400 1,380 Climbing Memphis Center
10:52PM 34.3944 -87.4172 288° West 433 498 34,800 1,260 Climbing Memphis Center
10:53PM 34.4308 -87.5494 286° West 433 498 36,000 600 Climbing Memphis Center
10:54PM 34.4608 -87.6794 286° West 415 478 36,000  Level Memphis Center
10:55PM 34.4931 -87.8169 287° West 415 478 36,000  Level Memphis Center
10:56PM 34.5269 -87.9497 288° West 415 478 36,000  Level Memphis Center
10:57PM 34.5586 -88.0697 287° West 415 478 36,000  Level Memphis Center
10:58PM 34.5967 -88.2253 287° West 421 484 36,000  Level Memphis Center
10:59PM 34.6303 -88.3631 286° West 431 496 36,000  Level Memphis Center
11:00PM 34.6569 -88.4736 287° West 431 496 36,000  Level Memphis Center
11:01PM 34.6925 -88.6192 287° West 417 480 36,000  Level Memphis Center
11:02PM 34.7278 -88.7600 287° West 417 480 36,000  Level Memphis Center
11:03PM 34.7608 -88.8961 286° West 417 480 36,000  Level Memphis Center
11:04PM 34.7958 -89.0472 286° West 422 486 36,000  Level Memphis Center
11:05PM 34.8286 -89.1858 286° West 422 486 36,000  Level Memphis Center
11:06PM 34.8611 -89.3219 287° West 422 486 36,000  Level Memphis Center
11:07PM 34.8956 -89.4608 287° West 427 491 36,000  Level Memphis Center
11:08PM 34.9300 -89.5972 282° West 427 491 36,000  Level Memphis Center
11:09PM 34.9514 -89.7236 290° West 427 491 36,000  Level Memphis Center
11:10PM 34.9981 -89.8831 278° West 443 510 36,000  Level Memphis Center
11:11PM 35.0153 -90.0250 260° West 432 497 36,000  Level Memphis Center
11:12PM 34.9947 -90.1644 258° West 421 484 36,000  Level Memphis Center
11:13PM 34.9697 -90.3039 260° West 421 484 36,000  Level Memphis Center
11:14PM 34.9489 -90.4483 259° West 431 496 36,000  Level Memphis Center
11:15PM 34.9278 -90.5850 260° West 426 490 36,000  Level Memphis Center
11:16PM 34.9067 -90.7294 259° West 432 497 36,000  Level Memphis Center
11:17PM 34.8853 -90.8683 259° West 427 491 36,000  Level Memphis Center
11:18PM 34.8639 -91.0075 260° West 432 497 36,000  Level Memphis Center
11:19PM 34.8422 -91.1517 260° West 432 497 36,000  Level Memphis Center
11:20PM 34.8203 -91.2956 260° West 432 497 36,000  Level Memphis Center
11:21PM 34.7983 -91.4419 258° West 432 497 36,000  Level Memphis Center
11:22PM 34.7761 -91.5683 260° West 432 497 36,000  Level Memphis Center
11:23PM 34.7561 -91.7094 257° West 432 497 36,000  Level Memphis Center
11:24PM 34.7294 -91.8506 259° West 427 491 36,000  Level Memphis Center
11:25PM 34.7067 -91.9942 258° West 434 499 36,000  Level Memphis Center
11:26PM 34.6817 -92.1428 251° West 434 499 36,000  Level Memphis Center
11:27PM 34.6442 -92.2783 248° West 434 499 36,000  Level Memphis Center
11:28PM 34.5983 -92.4158 249° West 439 505 36,000  Level Memphis Center
11:29PM 34.5542 -92.5536 247° West 444 511 36,000  Level Memphis Center
11:30PM 34.5058 -92.6883 249° West 450 518 36,000  Level Memphis Center
11:31PM 34.4614 -92.8258 249° West 445 512 36,000  Level Memphis Center
11:32PM 34.4169 -92.9631 246° West 440 506 36,000  Level Memphis Center
11:33PM 34.3703 -93.0925 247° West 446 513 36,000  Level Memphis Center
11:34PM 34.3256 -93.2217 249° West 429 494 36,000  Level Memphis Center
11:36PM 34.2583 -93.4333 247° West 421 484 36,000  Level Fort Worth Center
11:37PM 34.2125 -93.5636 247° West 421 484 36,000  Level Fort Worth Center
11:38PM 34.1664 -93.6961 248° West 426 490 36,000  Level Fort Worth Center
11:39PM 34.1222 -93.8261 257° West 426 490 36,000  Level Fort Worth Center
11:40PM 34.0947 -93.9650 261° West 421 484 36,000  Level Fort Worth Center
11:41PM 34.0775 -94.1011 260° West 421 484 36,000  Level Fort Worth Center
11:42PM 34.0581 -94.2372 261° West 416 479 36,000  Level Fort Worth Center
11:43PM 34.0406 -94.3756 260° West 416 479 36,000  Level Fort Worth Center
11:44PM 34.0208 -94.5117 260° West 416 479 36,000  Level Fort Worth Center
11:45PM 34.0011 -94.6475 260° West 416 479 36,000  Level Fort Worth Center
11:46PM 33.9811 -94.7886 260° West 416 479 36,000  Level Fort Worth Center
11:47PM 33.9608 -94.9244 262° West 416 479 36,000  Level Fort Worth Center
11:48PM 33.9447 -95.0600 261° West 416 479 36,000  Level Fort Worth Center
11:49PM 33.9264 -95.1956 260° West 416 479 36,000  Level Fort Worth Center
11:50PM 33.9058 -95.3364 260° West 416 479 36,000  Level Fort Worth Center
11:51PM 33.8850 -95.4719 263° West 416 479 36,000  Level Fort Worth Center
11:52PM 33.8706 -95.6172 260° West 411 473 36,000  Level Fort Worth Center
11:53PM 33.8494 -95.7553 260° West 411 473 36,000  Level Fort Worth Center
11:54PM 33.8303 -95.8908 259° West 417 480 36,000  Level Fort Worth Center
11:55PM 33.8089 -96.0261 259° West 417 480 36,000  Level Fort Worth Center
11:56PM 33.7892 -96.1464 260° West 417 480 36,000  Level Fort Worth Center
11:57PM 33.7697 -96.2842 260° West 417 480 36,000  Level Fort Worth Center
11:58PM 33.7500 -96.4192 259° West 412 474 36,000  Level Fort Worth Center
11:59PM 33.7281 -96.5567 261° West 412 474 36,000  Level Fort Worth Center
12:00AM 33.7100 -96.6869 259° West 412 474 36,000  Level Fort Worth Center
12:01AM 33.6878 -96.8244 259° West 412 474 36,000  Level Fort Worth Center
12:02AM 33.6675 -96.9542 260° West 407 468 36,000  Level Fort Worth Center
12:03AM 33.6469 -97.0892 258° West 414 476 36,000  Level Fort Worth Center
12:04AM 33.6222 -97.2339 260° West 414 476 36,000  Level Fort Worth Center
12:05AM 33.6014 -97.3686 259° West 407 468 36,000  Level Fort Worth Center
12:06AM 33.5786 -97.5031 259° West 412 474 36,000  Level Fort Worth Center
12:07AM 33.5575 -97.6328 258° West 412 474 36,000  Level Fort Worth Center
12:08AM 33.5342 -97.7672 259° West 412 474 36,000  Level Fort Worth Center
12:09AM 33.5128 -97.9017 258° West 412 474 36,000  Level Fort Worth Center
12:10AM 33.4894 -98.0361 257° West 407 468 36,000  Level Fort Worth Center
12:11AM 33.4656 -98.1631 261° West 414 476 36,000  Level Fort Worth Center
12:12AM 33.4481 -98.3022 256° West 409 471 36,000  Level Fort Worth Center
12:13AM 33.4219 -98.4314 257° West 409 471 36,000  Level Fort Worth Center
12:14AM 33.3958 -98.5656 260° West 414 476 36,000  Level Fort Worth Center
12:15AM 33.3756 -98.7019 259° West 414 476 36,000  Level Fort Worth Center
12:16AM 33.3533 -98.8383 258° West 414 476 36,000  Level Fort Worth Center
12:17AM 33.3286 -98.9747 259° West 414 476 36,000  Level Fort Worth Center
12:18AM 33.3061 -99.1086 259° West 414 476 36,000  Level Fort Worth Center
12:19AM 33.2833 -99.2422 258° West 414 476 36,000  Level Fort Worth Center
12:20AM 33.2583 -99.3783 258° West 414 476 36,000  Level Fort Worth Center
12:21AM 33.2353 -99.5119 258° West 414 476 36,000  Level Fort Worth Center
12:22AM 33.2100 -99.6481 258° West 414 476 36,000  Level Fort Worth Center
12:23AM 33.1867 -99.7839 257° West 414 476 36,000  Level Fort Worth Center
12:24AM 33.1611 -99.9197 258° West 414 476 36,000  Level Fort Worth Center
12:25AM 33.1375 -100.0556 257° West 414 476 36,000  Level Fort Worth Center
12:26AM 33.1117 -100.1886 257° West 414 476 36,000  Level Fort Worth Center
12:27AM 33.0856 -100.3242 258° West 414 476 36,000  Level Fort Worth Center
12:28AM 33.0614 -100.4597 257° West 414 476 36,000  Level Fort Worth Center
12:29AM 33.0350 -100.5950 258° West 414 476 36,000  Level Fort Worth Center
12:30AM 33.0108 -100.7281 257° West 414 476 36,000  Level Fort Worth Center
12:31AM 32.9842 -100.8633 257° West 414 476 36,000  Level Fort Worth Center
12:32AM 32.9594 -100.9958 256° West 414 476 36,000  Level Fort Worth Center
12:33AM 32.9306 -101.1308 257° West 414 476 36,000  Level Fort Worth Center
12:34AM 32.9036 -101.2658 259° West 414 476 36,000  Level Fort Worth Center
12:35AM 32.8806 -101.4008 257° West 414 476 36,000  Level Fort Worth Center
12:36AM 32.8556 -101.5308 255° West 414 476 36,000  Level Fort Worth Center
12:37AM 32.8261 -101.6628 256° West 414 476 36,000  Level Fort Worth Center
12:38AM 32.7986 -101.7950 257° West 414 476 36,000  Level Fort Worth Center
12:39AM 32.7731 -101.9247 258° West 414 476 36,000  Level Fort Worth Center
12:40AM 32.7494 -102.0594 257° West 412 474 36,000  Level Fort Worth Center
12:41AM 32.7236 -102.1889 257° West 412 474 36,000  Level Fort Worth Center
12:42AM 32.6975 -102.3208 257° West 407 468 36,000  Level Fort Worth Center
12:43AM 32.6714 -102.4550 257° West 424 488 36,000  Level Fort Worth Center
12:44AM 32.6450 -102.5942 254° West 433 498 36,000  Level Fort Worth Center
12:45AM 32.6144 -102.7206 257° West 420 483 36,000  Level Fort Worth Center
12:46AM 32.5881 -102.8522 257° West 413 475 36,000  Level Fort Worth Center
12:48AM 32.5289 -103.1442 253° West 415 478 36,000  Level Albuquerque Center
12:49AM 32.4958 -103.2739 257° West 420 483 36,000  Level Albuquerque Center
12:50AM 32.4711 -103.4053 257° West 420 483 36,000  Level Albuquerque Center
12:51AM 32.4461 -103.5369 255° West 414 476 36,000  Level Albuquerque Center
12:52AM 32.4169 -103.6683 256° West 419 482 36,000  Level Albuquerque Center
12:53AM 32.3897 -103.8022 255° West 419 482 36,000  Level Albuquerque Center
12:54AM 32.3600 -103.9314 257° West 419 482 36,000  Level Albuquerque Center
12:55AM 32.3364 -104.0500 252° West 419 482 36,000  Level Albuquerque Center
12:56AM 32.3019 -104.1742 257° West 414 476 36,000  Level Albuquerque Center
12:57AM 32.2744 -104.3103 256° West 419 482 36,000  Level Albuquerque Center
12:58AM 32.2464 -104.4411 254° West 419 482 36,000  Level Albuquerque Center
12:59AM 32.2139 -104.5722 256° West 419 482 36,000  Level Albuquerque Center
01:00AM 32.1856 -104.7031 262° West 419 482 36,000  Level Albuquerque Center
01:17AM 31.9017 -107.0164 278° West 424 488 36,000  Level Albuquerque Center
01:32AM 32.1117 -109.0197 277° West 424 488 36,000 -60 Level Albuquerque Center
01:33AM 32.1244 -109.1522 276° West 424 488 35,200 -2,100 Descending Albuquerque Center
01:34AM 32.1369 -109.2897 280° West 424 488 31,900 -3,180 Descending Albuquerque Center
01:35AM 32.1575 -109.4300 279° West 424 488 28,900 -2,760 Descending Albuquerque Center
01:36AM 32.1758 -109.5675 277° West 424 488 26,400 -2,460 Descending Albuquerque Center
01:37AM 32.1903 -109.6981 279° West 424 488 24,000 -2,400 Descending Albuquerque Center
01:38AM 32.2064 -109.8258 268° West 408 470 21,600 -2,280 Descending Albuquerque Center
01:39AM 32.2017 -109.9533 260° West 396 456 19,500 -2,160 Descending Albuquerque Center
01:40AM 32.1867 -110.0583 264° West 376 433 17,900 -1,620 Descending Albuquerque Center
01:41AM 32.1756 -110.1831 281° West 367 422 16,300 -1,620 Descending Albuquerque Center
01:42AM 32.1956 -110.3061 290° West 348 400 14,300 -1,800 Descending Albuquerque Center
01:43AM 32.2225 -110.3956 287° West 343 395 12,700 -1,680 Descending Albuquerque Center
01:44AM 32.2489 -110.4994 272° West 338 389 11,000 -780 Descending Albuquerque Center
01:45AM 32.2536 -110.6444 278° West 319 367 11,000  Level Albuquerque Center
01:46AM 32.2653 -110.7478 276° West 315 362 11,000 -900 Level Albuquerque Center
01:47AM 32.2731 -110.8367 275° West 274 315 9,300 -1,680 Descending Albuquerque Center
01:48AM 32.2792 -110.9178 251° West 250 288 7,600 -1,320 Descending Albuquerque Center
01:49AM 32.2603 -110.9833 216° Southwest 192 221 6,700 -1,320 Descending Albuquerque Center
01:51AM 32.2219 -111.0161 175° South 177 204 5,000 -1,320 Descending Albuquerque Center
01:52AM 32.1783 -111.0117 140° Southeast 157 181 4,100 -900 Descending Albuquerque Center
01:53AM 32.1478 -110.9811 140° Southeast 157 181 3,300 -840 Descending Albuquerque Center